sensor_id;sensor_type;location;lat;lon;timestamp;P1;durP1;ratioP1;P2;durP2;ratioP2
10244;SDS011;5167;52.164;10.530;2023-05-17T00:01:18;5.65;;;2.95;;
10244;SDS011;5167;52.164;10.530;2023-05-17T00:03:43;12.27;;;3.25;;
10244;SDS011;5167;52.164;10.530;2023-05-17T00:06:09;5.85;;;3.03;;
10244;SDS011;5167;52.164;10.530;2023-05-17T00:08:34;9.27;;;2.97;;
10244;SDS011;5167;52.164;10.530;2023-05-17T00:11:00;4.47;;;2.83;;
10244;SDS011;5167;52.164;10.530;2023-05-17T00:13:25;8.00;;;3.30;;
10244;SDS011;5167;52.164;10.530;2023-05-17T00:15:51;5.63;;;2.95;;
10244;SDS011;5167;52.164;10.530;2023-05-17T00:18:16;6.50;;;3.10;;
10244;SDS011;5167;52.164;10.530;2023-05-17T00:20:42;16.35;;;3.33;;
10244;SDS011;5167;52.164;10.530;2023-05-17T00:23:07;5.55;;;2.70;;
10244;SDS011;5167;52.164;10.530;2023-05-17T00:25:33;7.27;;;2.80;;
10244;SDS011;5167;52.164;10.530;2023-05-17T00:27:58;5.87;;;2.37;;
10244;SDS011;5167;52.164;10.530;2023-05-17T00:30:24;6.50;;;3.40;;
10244;SDS011;5167;52.164;10.530;2023-05-17T00:32:49;5.47;;;3.17;;
10244;SDS011;5167;52.164;10.530;2023-05-17T00:35:15;6.40;;;3.10;;
10244;SDS011;5167;52.164;10.530;2023-05-17T00:37:40;12.05;;;3.53;;
10244;SDS011;5167;52.164;10.530;2023-05-17T00:40:11;6.97;;;3.53;;
10244;SDS011;5167;52.164;10.530;2023-05-17T00:42:39;5.93;;;3.17;;
10244;SDS011;5167;52.164;10.530;2023-05-17T00:45:04;7.07;;;4.00;;
10244;SDS011;5167;52.164;10.530;2023-05-17T00:47:30;7.95;;;2.88;;
10244;SDS011;5167;52.164;10.530;2023-05-17T00:49:56;7.53;;;2.92;;
10244;SDS011;5167;52.164;10.530;2023-05-17T00:52:21;8.20;;;3.10;;
10244;SDS011;5167;52.164;10.530;2023-05-17T00:54:47;10.17;;;3.50;;
10244;SDS011;5167;52.164;10.530;2023-05-17T00:57:14;7.20;;;3.20;;
10244;SDS011;5167;52.164;10.530;2023-05-17T00:59:40;5.32;;;2.90;;
10244;SDS011;5167;52.164;10.530;2023-05-17T01:02:08;10.95;;;3.30;;
10244;SDS011;5167;52.164;10.530;2023-05-17T01:04:34;7.43;;;3.03;;
10244;SDS011;5167;52.164;10.530;2023-05-17T01:07:00;10.68;;;3.33;;
10244;SDS011;5167;52.164;10.530;2023-05-17T01:09:25;9.35;;;3.47;;
10244;SDS011;5167;52.164;10.530;2023-05-17T01:12:04;6.53;;;2.90;;
10244;SDS011;5167;52.164;10.530;2023-05-17T01:17:17;6.47;;;2.77;;
10244;SDS011;5167;52.164;10.530;2023-05-17T01:25:10;7.40;;;3.60;;
10244;SDS011;5167;52.164;10.530;2023-05-17T01:28:00;3.75;;;2.45;;
10244;SDS011;5167;52.164;10.530;2023-05-17T01:30:27;8.73;;;3.30;;
10244;SDS011;5167;52.164;10.530;2023-05-17T01:32:54;7.70;;;2.30;;
10244;SDS011;5167;52.164;10.530;2023-05-17T01:35:22;5.33;;;2.60;;
10244;SDS011;5167;52.164;10.530;2023-05-17T01:37:48;6.67;;;3.23;;
10244;SDS011;5167;52.164;10.530;2023-05-17T01:40:14;6.80;;;3.25;;
10244;SDS011;5167;52.164;10.530;2023-05-17T01:42:42;8.97;;;3.17;;
10244;SDS011;5167;52.164;10.530;2023-05-17T01:45:12;8.40;;;3.00;;
10244;SDS011;5167;52.164;10.530;2023-05-17T01:47:59;9.43;;;3.27;;
10244;SDS011;5167;52.164;10.530;2023-05-17T01:50:47;6.17;;;2.70;;
10244;SDS011;5167;52.164;10.530;2023-05-17T01:56:12;7.90;;;3.10;;
10244;SDS011;5167;52.164;10.530;2023-05-17T01:58:44;9.07;;;3.40;;
10244;SDS011;5167;52.164;10.530;2023-05-17T02:01:12;8.43;;;3.37;;
10244;SDS011;5167;52.164;10.530;2023-05-17T02:03:39;9.83;;;3.20;;
10244;SDS011;5167;52.164;10.530;2023-05-17T02:06:05;10.73;;;3.30;;
10244;SDS011;5167;52.164;10.530;2023-05-17T02:08:31;9.07;;;2.90;;
10244;SDS011;5167;52.164;10.530;2023-05-17T02:10:56;10.37;;;3.80;;
10244;SDS011;5167;52.164;10.530;2023-05-17T02:13:22;14.43;;;3.28;;
10244;SDS011;5167;52.164;10.530;2023-05-17T02:15:47;7.68;;;2.65;;
10244;SDS011;5167;52.164;10.530;2023-05-17T02:18:13;6.57;;;2.90;;
10244;SDS011;5167;52.164;10.530;2023-05-17T02:20:38;10.40;;;3.53;;
10244;SDS011;5167;52.164;10.530;2023-05-17T02:23:04;9.07;;;3.37;;
10244;SDS011;5167;52.164;10.530;2023-05-17T02:25:29;8.23;;;3.17;;
10244;SDS011;5167;52.164;10.530;2023-05-17T02:27:55;12.00;;;4.30;;
10244;SDS011;5167;52.164;10.530;2023-05-17T02:30:20;11.97;;;3.77;;
10244;SDS011;5167;52.164;10.530;2023-05-17T02:32:47;10.27;;;3.78;;
10244;SDS011;5167;52.164;10.530;2023-05-17T02:35:12;9.93;;;3.57;;
10244;SDS011;5167;52.164;10.530;2023-05-17T02:37:38;7.10;;;3.53;;
10244;SDS011;5167;52.164;10.530;2023-05-17T02:40:04;10.37;;;3.33;;
10244;SDS011;5167;52.164;10.530;2023-05-17T02:42:33;11.60;;;3.50;;
10244;SDS011;5167;52.164;10.530;2023-05-17T02:44:59;11.27;;;3.70;;
10244;SDS011;5167;52.164;10.530;2023-05-17T02:47:24;11.50;;;3.27;;
10244;SDS011;5167;52.164;10.530;2023-05-17T02:49:50;5.47;;;3.10;;
10244;SDS011;5167;52.164;10.530;2023-05-17T02:52:16;6.97;;;3.00;;
10244;SDS011;5167;52.164;10.530;2023-05-17T02:54:41;10.33;;;3.30;;
10244;SDS011;5167;52.164;10.530;2023-05-17T02:57:09;15.10;;;3.23;;
10244;SDS011;5167;52.164;10.530;2023-05-17T02:59:35;6.53;;;3.30;;
10244;SDS011;5167;52.164;10.530;2023-05-17T03:02:01;12.57;;;3.67;;
10244;SDS011;5167;52.164;10.530;2023-05-17T03:04:26;9.60;;;3.53;;
10244;SDS011;5167;52.164;10.530;2023-05-17T03:06:52;6.77;;;3.43;;
10244;SDS011;5167;52.164;10.530;2023-05-17T03:09:17;6.10;;;3.13;;
10244;SDS011;5167;52.164;10.530;2023-05-17T03:11:43;15.43;;;4.10;;
10244;SDS011;5167;52.164;10.530;2023-05-17T03:14:09;11.33;;;3.87;;
10244;SDS011;5167;52.164;10.530;2023-05-17T03:16:34;7.80;;;3.97;;
10244;SDS011;5167;52.164;10.530;2023-05-17T03:19:00;12.17;;;4.13;;
10244;SDS011;5167;52.164;10.530;2023-05-17T03:21:26;9.23;;;3.83;;
10244;SDS011;5167;52.164;10.530;2023-05-17T03:23:51;13.07;;;4.13;;
10244;SDS011;5167;52.164;10.530;2023-05-17T03:26:16;6.17;;;3.20;;
10244;SDS011;5167;52.164;10.530;2023-05-17T03:28:43;13.13;;;3.40;;
10244;SDS011;5167;52.164;10.530;2023-05-17T03:31:09;9.90;;;3.90;;
10244;SDS011;5167;52.164;10.530;2023-05-17T03:33:35;8.70;;;3.70;;
10244;SDS011;5167;52.164;10.530;2023-05-17T03:36:00;11.73;;;3.47;;
10244;SDS011;5167;52.164;10.530;2023-05-17T03:38:26;12.43;;;3.73;;
10244;SDS011;5167;52.164;10.530;2023-05-17T03:40:51;13.37;;;4.23;;
10244;SDS011;5167;52.164;10.530;2023-05-17T03:43:17;8.17;;;4.20;;
10244;SDS011;5167;52.164;10.530;2023-05-17T03:45:42;12.60;;;3.80;;
10244;SDS011;5167;52.164;10.530;2023-05-17T03:48:08;10.23;;;3.27;;
10244;SDS011;5167;52.164;10.530;2023-05-17T03:50:34;9.77;;;3.37;;
10244;SDS011;5167;52.164;10.530;2023-05-17T03:52:59;18.60;;;4.03;;
10244;SDS011;5167;52.164;10.530;2023-05-17T03:55:25;9.00;;;3.63;;
10244;SDS011;5167;52.164;10.530;2023-05-17T03:57:50;14.07;;;4.40;;
10244;SDS011;5167;52.164;10.530;2023-05-17T04:00:16;14.40;;;4.27;;
10244;SDS011;5167;52.164;10.530;2023-05-17T04:02:46;13.03;;;3.70;;
10244;SDS011;5167;52.164;10.530;2023-05-17T04:05:12;11.32;;;3.75;;
10244;SDS011;5167;52.164;10.530;2023-05-17T04:07:37;8.07;;;3.77;;
10244;SDS011;5167;52.164;10.530;2023-05-17T04:10:03;13.67;;;4.73;;
10244;SDS011;5167;52.164;10.530;2023-05-17T04:12:29;11.90;;;4.63;;
10244;SDS011;5167;52.164;10.530;2023-05-17T04:14:55;15.13;;;3.90;;
10244;SDS011;5167;52.164;10.530;2023-05-17T04:17:20;9.40;;;4.13;;
10244;SDS011;5167;52.164;10.530;2023-05-17T04:19:46;17.10;;;4.17;;
10244;SDS011;5167;52.164;10.530;2023-05-17T04:22:11;14.83;;;3.90;;
10244;SDS011;5167;52.164;10.530;2023-05-17T04:24:37;13.60;;;3.57;;
10244;SDS011;5167;52.164;10.530;2023-05-17T04:27:03;13.60;;;4.03;;
10244;SDS011;5167;52.164;10.530;2023-05-17T04:29:29;10.23;;;3.43;;
10244;SDS011;5167;52.164;10.530;2023-05-17T04:31:54;9.93;;;3.93;;
10244;SDS011;5167;52.164;10.530;2023-05-17T04:34:20;9.70;;;3.97;;
10244;SDS011;5167;52.164;10.530;2023-05-17T04:36:48;18.53;;;4.63;;
10244;SDS011;5167;52.164;10.530;2023-05-17T04:39:14;12.90;;;3.90;;
10244;SDS011;5167;52.164;10.530;2023-05-17T04:41:41;12.03;;;3.73;;
10244;SDS011;5167;52.164;10.530;2023-05-17T04:44:06;11.73;;;3.70;;
10244;SDS011;5167;52.164;10.530;2023-05-17T04:46:32;17.23;;;4.47;;
10244;SDS011;5167;52.164;10.530;2023-05-17T04:48:58;15.10;;;4.40;;
10244;SDS011;5167;52.164;10.530;2023-05-17T04:51:24;17.17;;;3.83;;
10244;SDS011;5167;52.164;10.530;2023-05-17T04:53:50;13.30;;;4.00;;
10244;SDS011;5167;52.164;10.530;2023-05-17T04:56:16;10.80;;;4.17;;
10244;SDS011;5167;52.164;10.530;2023-05-17T04:58:42;13.30;;;3.80;;
10244;SDS011;5167;52.164;10.530;2023-05-17T05:01:07;13.37;;;4.60;;
10244;SDS011;5167;52.164;10.530;2023-05-17T05:03:33;14.20;;;3.97;;
10244;SDS011;5167;52.164;10.530;2023-05-17T05:05:58;19.63;;;4.47;;
10244;SDS011;5167;52.164;10.530;2023-05-17T05:08:24;9.32;;;4.25;;
10244;SDS011;5167;52.164;10.530;2023-05-17T05:10:49;12.90;;;4.87;;
10244;SDS011;5167;52.164;10.530;2023-05-17T05:13:15;18.60;;;4.30;;
10244;SDS011;5167;52.164;10.530;2023-05-17T05:15:41;9.23;;;4.30;;
10244;SDS011;5167;52.164;10.530;2023-05-17T05:18:07;20.17;;;4.53;;
10244;SDS011;5167;52.164;10.530;2023-05-17T05:20:32;16.70;;;4.30;;
10244;SDS011;5167;52.164;10.530;2023-05-17T05:22:58;13.13;;;4.85;;
10244;SDS011;5167;52.164;10.530;2023-05-17T05:25:24;17.90;;;4.65;;
10244;SDS011;5167;52.164;10.530;2023-05-17T05:27:51;11.67;;;4.10;;
10244;SDS011;5167;52.164;10.530;2023-05-17T05:30:16;16.70;;;4.47;;
10244;SDS011;5167;52.164;10.530;2023-05-17T05:32:46;11.93;;;4.47;;
10244;SDS011;5167;52.164;10.530;2023-05-17T05:35:15;13.25;;;4.80;;
10244;SDS011;5167;52.164;10.530;2023-05-17T05:37:41;21.60;;;6.15;;
10244;SDS011;5167;52.164;10.530;2023-05-17T05:40:08;11.73;;;3.85;;
10244;SDS011;5167;52.164;10.530;2023-05-17T05:42:34;16.95;;;4.65;;
10244;SDS011;5167;52.164;10.530;2023-05-17T05:44:59;14.98;;;3.88;;
10244;SDS011;5167;52.164;10.530;2023-05-17T05:47:25;17.98;;;3.67;;
10244;SDS011;5167;52.164;10.530;2023-05-17T05:49:50;12.88;;;3.63;;
10244;SDS011;5167;52.164;10.530;2023-05-17T05:52:16;12.32;;;3.42;;
10244;SDS011;5167;52.164;10.530;2023-05-17T05:54:41;12.50;;;3.67;;
10244;SDS011;5167;52.164;10.530;2023-05-17T05:57:07;17.80;;;3.47;;
10244;SDS011;5167;52.164;10.530;2023-05-17T05:59:32;15.52;;;3.30;;
10244;SDS011;5167;52.164;10.530;2023-05-17T06:01:58;13.68;;;3.38;;
10244;SDS011;5167;52.164;10.530;2023-05-17T06:04:24;10.63;;;3.10;;
10244;SDS011;5167;52.164;10.530;2023-05-17T06:06:49;15.05;;;3.70;;
10244;SDS011;5167;52.164;10.530;2023-05-17T06:09:15;16.13;;;2.95;;
10244;SDS011;5167;52.164;10.530;2023-05-17T06:11:40;6.90;;;2.67;;
10244;SDS011;5167;52.164;10.530;2023-05-17T06:14:06;13.68;;;2.67;;
10244;SDS011;5167;52.164;10.530;2023-05-17T06:16:32;8.32;;;3.30;;
10244;SDS011;5167;52.164;10.530;2023-05-17T06:18:58;12.10;;;2.92;;
10244;SDS011;5167;52.164;10.530;2023-05-17T06:21:23;12.45;;;2.42;;
10244;SDS011;5167;52.164;10.530;2023-05-17T06:23:49;5.05;;;2.65;;
10244;SDS011;5167;52.164;10.530;2023-05-17T06:26:15;7.25;;;2.47;;
10244;SDS011;5167;52.164;10.530;2023-05-17T06:28:40;11.80;;;2.65;;
10244;SDS011;5167;52.164;10.530;2023-05-17T06:31:05;6.85;;;2.33;;
10244;SDS011;5167;52.164;10.530;2023-05-17T06:33:31;17.33;;;2.55;;
10244;SDS011;5167;52.164;10.530;2023-05-17T06:35:57;8.15;;;2.38;;
10244;SDS011;5167;52.164;10.530;2023-05-17T06:38:22;11.57;;;2.40;;
10244;SDS011;5167;52.164;10.530;2023-05-17T06:40:52;9.65;;;2.45;;
10244;SDS011;5167;52.164;10.530;2023-05-17T06:43:18;11.55;;;2.53;;
10244;SDS011;5167;52.164;10.530;2023-05-17T06:45:44;11.88;;;3.00;;
10244;SDS011;5167;52.164;10.530;2023-05-17T06:48:09;12.88;;;2.80;;
10244;SDS011;5167;52.164;10.530;2023-05-17T06:50:35;11.70;;;2.63;;
10244;SDS011;5167;52.164;10.530;2023-05-17T06:53:00;6.60;;;2.47;;
10244;SDS011;5167;52.164;10.530;2023-05-17T06:55:26;10.13;;;2.17;;
10244;SDS011;5167;52.164;10.530;2023-05-17T06:57:51;11.15;;;2.38;;
10244;SDS011;5167;52.164;10.530;2023-05-17T07:00:17;11.90;;;2.10;;
10244;SDS011;5167;52.164;10.530;2023-05-17T07:02:43;6.28;;;1.92;;
10244;SDS011;5167;52.164;10.530;2023-05-17T07:05:08;7.50;;;1.60;;
10244;SDS011;5167;52.164;10.530;2023-05-17T07:07:34;8.32;;;1.85;;
10244;SDS011;5167;52.164;10.530;2023-05-17T07:09:59;10.88;;;2.15;;
10244;SDS011;5167;52.164;10.530;2023-05-17T07:12:25;8.65;;;1.80;;
10244;SDS011;5167;52.164;10.530;2023-05-17T07:14:50;4.72;;;1.40;;
10244;SDS011;5167;52.164;10.530;2023-05-17T07:17:16;5.28;;;1.63;;
10244;SDS011;5167;52.164;10.530;2023-05-17T07:19:41;13.07;;;1.83;;
10244;SDS011;5167;52.164;10.530;2023-05-17T07:22:07;4.30;;;1.70;;
10244;SDS011;5167;52.164;10.530;2023-05-17T07:24:32;6.53;;;1.67;;
10244;SDS011;5167;52.164;10.530;2023-05-17T07:26:59;9.70;;;2.00;;
10244;SDS011;5167;52.164;10.530;2023-05-17T07:29:25;3.15;;;1.83;;
10244;SDS011;5167;52.164;10.530;2023-05-17T07:31:50;14.50;;;2.08;;
10244;SDS011;5167;52.164;10.530;2023-05-17T07:34:16;11.68;;;1.88;;
10244;SDS011;5167;52.164;10.530;2023-05-17T07:36:41;5.93;;;1.52;;
10244;SDS011;5167;52.164;10.530;2023-05-17T07:39:07;8.70;;;2.10;;
10244;SDS011;5167;52.164;10.530;2023-05-17T07:41:33;6.43;;;2.33;;
10244;SDS011;5167;52.164;10.530;2023-05-17T07:43:58;6.93;;;1.55;;
10244;SDS011;5167;52.164;10.530;2023-05-17T07:46:24;7.88;;;1.77;;
10244;SDS011;5167;52.164;10.530;2023-05-17T07:48:49;8.27;;;2.33;;
10244;SDS011;5167;52.164;10.530;2023-05-17T07:51:15;4.72;;;1.50;;
10244;SDS011;5167;52.164;10.530;2023-05-17T07:53:40;11.00;;;2.08;;
10244;SDS011;5167;52.164;10.530;2023-05-17T07:56:06;5.97;;;1.50;;
10244;SDS011;5167;52.164;10.530;2023-05-17T07:58:31;11.70;;;1.60;;
10244;SDS011;5167;52.164;10.530;2023-05-17T08:00:58;4.18;;;1.75;;
10244;SDS011;5167;52.164;10.530;2023-05-17T08:03:23;3.80;;;1.48;;
10244;SDS011;5167;52.164;10.530;2023-05-17T08:05:49;12.23;;;1.60;;
10244;SDS011;5167;52.164;10.530;2023-05-17T08:08:14;6.90;;;1.98;;
10244;SDS011;5167;52.164;10.530;2023-05-17T08:10:40;9.88;;;2.13;;
10244;SDS011;5167;52.164;10.530;2023-05-17T08:13:07;6.10;;;1.58;;
10244;SDS011;5167;52.164;10.530;2023-05-17T08:15:33;7.78;;;1.95;;
10244;SDS011;5167;52.164;10.530;2023-05-17T08:17:58;8.63;;;2.00;;
10244;SDS011;5167;52.164;10.530;2023-05-17T08:20:24;7.10;;;1.85;;
10244;SDS011;5167;52.164;10.530;2023-05-17T08:22:49;6.80;;;1.77;;
10244;SDS011;5167;52.164;10.530;2023-05-17T08:25:15;6.90;;;1.42;;
10244;SDS011;5167;52.164;10.530;2023-05-17T08:27:40;5.43;;;1.35;;
10244;SDS011;5167;52.164;10.530;2023-05-17T08:30:06;5.07;;;1.45;;
10244;SDS011;5167;52.164;10.530;2023-05-17T08:32:32;7.15;;;1.35;;
10244;SDS011;5167;52.164;10.530;2023-05-17T08:34:57;6.03;;;1.92;;
10244;SDS011;5167;52.164;10.530;2023-05-17T08:37:22;6.13;;;1.50;;
10244;SDS011;5167;52.164;10.530;2023-05-17T08:39:48;5.78;;;2.00;;
10244;SDS011;5167;52.164;10.530;2023-05-17T08:42:16;5.82;;;1.60;;
10244;SDS011;5167;52.164;10.530;2023-05-17T08:44:46;6.30;;;1.58;;
10244;SDS011;5167;52.164;10.530;2023-05-17T08:47:11;9.50;;;1.90;;
10244;SDS011;5167;52.164;10.530;2023-05-17T08:49:49;5.60;;;1.58;;
10244;SDS011;5167;52.164;10.530;2023-05-17T08:52:16;7.82;;;1.90;;
10244;SDS011;5167;52.164;10.530;2023-05-17T08:54:41;3.60;;;1.40;;
10244;SDS011;5167;52.164;10.530;2023-05-17T08:57:07;5.93;;;1.40;;
10244;SDS011;5167;52.164;10.530;2023-05-17T08:59:34;6.13;;;1.83;;
10244;SDS011;5167;52.164;10.530;2023-05-17T09:02:00;5.78;;;1.45;;
10244;SDS011;5167;52.164;10.530;2023-05-17T09:04:27;9.73;;;1.40;;
10244;SDS011;5167;52.164;10.530;2023-05-17T09:06:53;2.33;;;1.60;;
10244;SDS011;5167;52.164;10.530;2023-05-17T09:09:19;8.90;;;1.67;;
10244;SDS011;5167;52.164;10.530;2023-05-17T09:11:45;8.18;;;1.58;;
10244;SDS011;5167;52.164;10.530;2023-05-17T09:14:11;6.45;;;1.52;;
10244;SDS011;5167;52.164;10.530;2023-05-17T09:16:40;6.78;;;1.70;;
10244;SDS011;5167;52.164;10.530;2023-05-17T09:19:07;7.90;;;1.50;;
10244;SDS011;5167;52.164;10.530;2023-05-17T09:21:37;10.63;;;1.90;;
10244;SDS011;5167;52.164;10.530;2023-05-17T09:24:03;7.63;;;2.05;;
10244;SDS011;5167;52.164;10.530;2023-05-17T09:26:38;7.50;;;1.98;;
10244;SDS011;5167;52.164;10.530;2023-05-17T09:29:11;5.75;;;1.70;;
10244;SDS011;5167;52.164;10.530;2023-05-17T09:31:39;6.20;;;1.48;;
10244;SDS011;5167;52.164;10.530;2023-05-17T09:34:06;4.70;;;2.05;;
10244;SDS011;5167;52.164;10.530;2023-05-17T09:36:31;15.50;;;1.98;;
10244;SDS011;5167;52.164;10.530;2023-05-17T09:39:00;9.73;;;1.90;;
10244;SDS011;5167;52.164;10.530;2023-05-17T09:41:29;7.78;;;1.83;;
10244;SDS011;5167;52.164;10.530;2023-05-17T09:43:56;9.45;;;1.95;;
10244;SDS011;5167;52.164;10.530;2023-05-17T09:46:26;8.43;;;1.80;;
10244;SDS011;5167;52.164;10.530;2023-05-17T09:48:52;7.75;;;2.08;;
10244;SDS011;5167;52.164;10.530;2023-05-17T09:51:29;6.20;;;1.73;;
10244;SDS011;5167;52.164;10.530;2023-05-17T09:54:21;14.18;;;2.28;;
10244;SDS011;5167;52.164;10.530;2023-05-17T09:56:52;5.45;;;1.98;;
10244;SDS011;5167;52.164;10.530;2023-05-17T09:59:19;3.90;;;1.65;;
10244;SDS011;5167;52.164;10.530;2023-05-17T10:01:45;9.45;;;2.17;;
10244;SDS011;5167;52.164;10.530;2023-05-17T10:04:14;9.85;;;2.38;;
10244;SDS011;5167;52.164;10.530;2023-05-17T10:06:44;10.25;;;2.45;;
10244;SDS011;5167;52.164;10.530;2023-05-17T10:09:11;12.02;;;2.08;;
10244;SDS011;5167;52.164;10.530;2023-05-17T10:11:38;7.15;;;1.42;;
10244;SDS011;5167;52.164;10.530;2023-05-17T10:16:50;10.98;;;2.67;;
10244;SDS011;5167;52.164;10.530;2023-05-17T10:19:17;9.95;;;1.63;;
10244;SDS011;5167;52.164;10.530;2023-05-17T10:21:46;9.02;;;2.33;;
10244;SDS011;5167;52.164;10.530;2023-05-17T10:24:13;10.82;;;2.35;;
10244;SDS011;5167;52.164;10.530;2023-05-17T10:26:40;9.00;;;2.13;;
10244;SDS011;5167;52.164;10.530;2023-05-17T10:29:06;9.45;;;1.83;;
10244;SDS011;5167;52.164;10.530;2023-05-17T10:31:33;10.38;;;2.03;;
10244;SDS011;5167;52.164;10.530;2023-05-17T10:34:00;5.35;;;1.70;;
10244;SDS011;5167;52.164;10.530;2023-05-17T10:36:27;8.15;;;1.80;;
10244;SDS011;5167;52.164;10.530;2023-05-17T10:38:53;7.80;;;2.10;;
10244;SDS011;5167;52.164;10.530;2023-05-17T10:41:20;8.77;;;1.80;;
10244;SDS011;5167;52.164;10.530;2023-05-17T10:43:48;12.30;;;2.15;;
10244;SDS011;5167;52.164;10.530;2023-05-17T10:46:15;8.25;;;1.92;;
10244;SDS011;5167;52.164;10.530;2023-05-17T10:48:42;8.52;;;1.85;;
10244;SDS011;5167;52.164;10.530;2023-05-17T10:51:09;7.68;;;1.80;;
10244;SDS011;5167;52.164;10.530;2023-05-17T10:54:02;7.07;;;2.08;;
10244;SDS011;5167;52.164;10.530;2023-05-17T10:56:31;5.80;;;1.73;;
10244;SDS011;5167;52.164;10.530;2023-05-17T11:04:33;6.18;;;2.13;;
10244;SDS011;5167;52.164;10.530;2023-05-17T11:09:41;9.35;;;2.03;;
10244;SDS011;5167;52.164;10.530;2023-05-17T11:12:08;8.25;;;1.98;;
10244;SDS011;5167;52.164;10.530;2023-05-17T11:17:16;5.43;;;1.58;;
10244;SDS011;5167;52.164;10.530;2023-05-17T11:22:43;5.00;;;1.80;;
10244;SDS011;5167;52.164;10.530;2023-05-17T11:25:14;3.53;;;1.63;;
10244;SDS011;5167;52.164;10.530;2023-05-17T11:30:17;10.48;;;2.85;;
10244;SDS011;5167;52.164;10.530;2023-05-17T11:32:47;10.52;;;2.13;;
10244;SDS011;5167;52.164;10.530;2023-05-17T11:35:14;10.88;;;2.33;;
10244;SDS011;5167;52.164;10.530;2023-05-17T11:37:42;7.57;;;1.90;;
10244;SDS011;5167;52.164;10.530;2023-05-17T11:40:08;4.40;;;1.70;;
10244;SDS011;5167;52.164;10.530;2023-05-17T11:42:36;3.05;;;1.67;;
10244;SDS011;5167;52.164;10.530;2023-05-17T11:45:03;5.97;;;1.80;;
10244;SDS011;5167;52.164;10.530;2023-05-17T11:47:29;11.35;;;2.08;;
10244;SDS011;5167;52.164;10.530;2023-05-17T11:49:58;6.00;;;2.03;;
10244;SDS011;5167;52.164;10.530;2023-05-17T11:52:26;8.00;;;1.92;;
10244;SDS011;5167;52.164;10.530;2023-05-17T11:54:52;5.07;;;2.08;;
10244;SDS011;5167;52.164;10.530;2023-05-17T11:57:18;3.83;;;1.48;;
10244;SDS011;5167;52.164;10.530;2023-05-17T11:59:46;7.95;;;2.35;;
10244;SDS011;5167;52.164;10.530;2023-05-17T12:02:25;8.95;;;1.73;;
10244;SDS011;5167;52.164;10.530;2023-05-17T12:04:54;5.60;;;1.52;;
10244;SDS011;5167;52.164;10.530;2023-05-17T12:07:20;6.18;;;1.98;;
10244;SDS011;5167;52.164;10.530;2023-05-17T12:09:46;5.57;;;1.67;;
10244;SDS011;5167;52.164;10.530;2023-05-17T12:12:11;7.22;;;1.80;;
10244;SDS011;5167;52.164;10.530;2023-05-17T12:14:37;8.15;;;1.90;;
10244;SDS011;5167;52.164;10.530;2023-05-17T12:17:07;6.28;;;1.85;;
10244;SDS011;5167;52.164;10.530;2023-05-17T12:19:35;6.32;;;1.73;;
10244;SDS011;5167;52.164;10.530;2023-05-17T12:22:07;8.50;;;1.88;;
10244;SDS011;5167;52.164;10.530;2023-05-17T12:24:39;6.32;;;1.77;;
10244;SDS011;5167;52.164;10.530;2023-05-17T12:27:05;7.00;;;1.92;;
10244;SDS011;5167;52.164;10.530;2023-05-17T12:29:31;4.75;;;1.73;;
10244;SDS011;5167;52.164;10.530;2023-05-17T12:31:57;9.05;;;2.22;;
10244;SDS011;5167;52.164;10.530;2023-05-17T12:34:24;6.65;;;1.70;;
10244;SDS011;5167;52.164;10.530;2023-05-17T12:36:49;4.43;;;1.52;;
10244;SDS011;5167;52.164;10.530;2023-05-17T12:39:17;3.67;;;1.73;;
10244;SDS011;5167;52.164;10.530;2023-05-17T12:41:47;7.30;;;1.73;;
10244;SDS011;5167;52.164;10.530;2023-05-17T12:44:14;5.13;;;1.95;;
10244;SDS011;5167;52.164;10.530;2023-05-17T12:46:39;15.63;;;2.10;;
10244;SDS011;5167;52.164;10.530;2023-05-17T12:49:07;4.95;;;2.13;;
10244;SDS011;5167;52.164;10.530;2023-05-17T12:51:43;7.75;;;2.83;;
10244;SDS011;5167;52.164;10.530;2023-05-17T12:54:13;10.73;;;2.20;;
10244;SDS011;5167;52.164;10.530;2023-05-17T12:56:50;7.63;;;2.13;;
10244;SDS011;5167;52.164;10.530;2023-05-17T12:59:16;3.92;;;1.70;;
10244;SDS011;5167;52.164;10.530;2023-05-17T13:01:47;5.35;;;1.88;;
10244;SDS011;5167;52.164;10.530;2023-05-17T13:04:14;4.72;;;1.88;;
10244;SDS011;5167;52.164;10.530;2023-05-17T13:06:50;7.03;;;1.65;;
10244;SDS011;5167;52.164;10.530;2023-05-17T13:09:18;8.60;;;1.88;;
10244;SDS011;5167;52.164;10.530;2023-05-17T13:11:49;5.72;;;1.52;;
10244;SDS011;5167;52.164;10.530;2023-05-17T13:14:32;2.95;;;1.88;;
10244;SDS011;5167;52.164;10.530;2023-05-17T13:17:05;4.78;;;1.52;;
10244;SDS011;5167;52.164;10.530;2023-05-17T13:19:35;7.85;;;1.75;;
10244;SDS011;5167;52.164;10.530;2023-05-17T13:22:02;10.95;;;2.05;;
10244;SDS011;5167;52.164;10.530;2023-05-17T13:24:30;12.40;;;1.90;;
10244;SDS011;5167;52.164;10.530;2023-05-17T13:26:59;7.00;;;2.10;;
10244;SDS011;5167;52.164;10.530;2023-05-17T13:29:25;6.78;;;1.88;;
10244;SDS011;5167;52.164;10.530;2023-05-17T13:31:51;2.03;;;1.40;;
10244;SDS011;5167;52.164;10.530;2023-05-17T13:34:17;4.30;;;1.50;;
10244;SDS011;5167;52.164;10.530;2023-05-17T13:36:45;7.30;;;1.52;;
10244;SDS011;5167;52.164;10.530;2023-05-17T13:39:10;2.55;;;1.20;;
10244;SDS011;5167;52.164;10.530;2023-05-17T13:41:36;8.18;;;2.63;;
10244;SDS011;5167;52.164;10.530;2023-05-17T13:44:02;3.58;;;1.38;;
10244;SDS011;5167;52.164;10.530;2023-05-17T13:46:27;3.25;;;1.33;;
10244;SDS011;5167;52.164;10.530;2023-05-17T13:48:53;2.35;;;1.45;;
10244;SDS011;5167;52.164;10.530;2023-05-17T13:51:19;6.40;;;1.83;;
10244;SDS011;5167;52.164;10.530;2023-05-17T13:53:44;4.15;;;1.58;;
10244;SDS011;5167;52.164;10.530;2023-05-17T13:56:10;4.90;;;2.03;;
10244;SDS011;5167;52.164;10.530;2023-05-17T13:58:35;7.80;;;1.60;;
10244;SDS011;5167;52.164;10.530;2023-05-17T14:01:01;4.65;;;1.65;;
10244;SDS011;5167;52.164;10.530;2023-05-17T14:03:27;8.90;;;1.58;;
10244;SDS011;5167;52.164;10.530;2023-05-17T14:05:52;3.63;;;1.25;;
10244;SDS011;5167;52.164;10.530;2023-05-17T14:08:18;4.30;;;1.63;;
10244;SDS011;5167;52.164;10.530;2023-05-17T14:10:44;14.05;;;1.65;;
10244;SDS011;5167;52.164;10.530;2023-05-17T14:13:10;4.93;;;1.63;;
10244;SDS011;5167;52.164;10.530;2023-05-17T14:15:37;6.43;;;1.63;;
10244;SDS011;5167;52.164;10.530;2023-05-17T14:18:04;3.33;;;1.52;;
10244;SDS011;5167;52.164;10.530;2023-05-17T14:20:30;4.97;;;1.35;;
10244;SDS011;5167;52.164;10.530;2023-05-17T14:22:56;3.75;;;1.33;;
10244;SDS011;5167;52.164;10.530;2023-05-17T14:25:21;2.88;;;1.23;;
10244;SDS011;5167;52.164;10.530;2023-05-17T14:27:47;2.60;;;1.35;;
10244;SDS011;5167;52.164;10.530;2023-05-17T14:30:13;4.43;;;1.45;;
10244;SDS011;5167;52.164;10.530;2023-05-17T14:32:39;6.30;;;1.27;;
10244;SDS011;5167;52.164;10.530;2023-05-17T14:35:06;4.13;;;1.52;;
10244;SDS011;5167;52.164;10.530;2023-05-17T14:37:32;4.03;;;1.23;;
10244;SDS011;5167;52.164;10.530;2023-05-17T14:39:58;8.38;;;2.10;;
10244;SDS011;5167;52.164;10.530;2023-05-17T14:42:24;9.77;;;2.20;;
10244;SDS011;5167;52.164;10.530;2023-05-17T14:44:49;3.70;;;1.45;;
10244;SDS011;5167;52.164;10.530;2023-05-17T14:47:15;5.97;;;1.70;;
10244;SDS011;5167;52.164;10.530;2023-05-17T14:49:41;3.72;;;1.50;;
10244;SDS011;5167;52.164;10.530;2023-05-17T14:52:07;7.70;;;1.88;;
10244;SDS011;5167;52.164;10.530;2023-05-17T14:54:33;4.18;;;1.83;;
10244;SDS011;5167;52.164;10.530;2023-05-17T14:56:59;7.50;;;1.88;;
10244;SDS011;5167;52.164;10.530;2023-05-17T14:59:25;5.43;;;2.17;;
10244;SDS011;5167;52.164;10.530;2023-05-17T15:01:51;4.05;;;1.85;;
10244;SDS011;5167;52.164;10.530;2023-05-17T15:04:17;10.68;;;1.92;;
10244;SDS011;5167;52.164;10.530;2023-05-17T15:06:43;10.90;;;2.72;;
10244;SDS011;5167;52.164;10.530;2023-05-17T15:09:09;2.72;;;1.52;;
10244;SDS011;5167;52.164;10.530;2023-05-17T15:11:37;4.28;;;1.60;;